sensor_id;sensor_type;location;lat;lon;timestamp;P1;durP1;ratioP1;P2;durP2;ratioP2
11082;SDS011;5595;50.186;8.468;2023-04-07T00:01:18;6.97;;;3.20;;
11082;SDS011;5595;50.186;8.468;2023-04-07T00:03:46;8.00;;;3.87;;
11082;SDS011;5595;50.186;8.468;2023-04-07T00:06:13;6.67;;;3.00;;
11082;SDS011;5595;50.186;8.468;2023-04-07T00:08:40;8.17;;;3.50;;
11082;SDS011;5595;50.186;8.468;2023-04-07T00:11:07;6.93;;;3.40;;
11082;SDS011;5595;50.186;8.468;2023-04-07T00:13:34;5.50;;;3.00;;
11082;SDS011;5595;50.186;8.468;2023-04-07T00:16:01;8.00;;;3.03;;
11082;SDS011;5595;50.186;8.468;2023-04-07T00:18:28;6.83;;;3.00;;
11082;SDS011;5595;50.186;8.468;2023-04-07T00:20:56;6.47;;;3.20;;
11082;SDS011;5595;50.186;8.468;2023-04-07T00:23:23;5.97;;;3.23;;
11082;SDS011;5595;50.186;8.468;2023-04-07T00:25:51;7.30;;;3.40;;
11082;SDS011;5595;50.186;8.468;2023-04-07T00:28:18;8.27;;;3.27;;
11082;SDS011;5595;50.186;8.468;2023-04-07T00:30:46;6.60;;;3.20;;
11082;SDS011;5595;50.186;8.468;2023-04-07T00:33:13;6.83;;;3.37;;
11082;SDS011;5595;50.186;8.468;2023-04-07T00:35:42;8.00;;;3.27;;
11082;SDS011;5595;50.186;8.468;2023-04-07T00:38:10;6.20;;;2.60;;
11082;SDS011;5595;50.186;8.468;2023-04-07T00:40:37;7.60;;;3.37;;
11082;SDS011;5595;50.186;8.468;2023-04-07T00:43:04;8.47;;;3.70;;
11082;SDS011;5595;50.186;8.468;2023-04-07T00:45:32;6.97;;;3.23;;
11082;SDS011;5595;50.186;8.468;2023-04-07T00:47:59;8.73;;;3.80;;
11082;SDS011;5595;50.186;8.468;2023-04-07T00:50:26;6.90;;;3.57;;
11082;SDS011;5595;50.186;8.468;2023-04-07T00:52:58;7.63;;;4.10;;
11082;SDS011;5595;50.186;8.468;2023-04-07T00:55:29;10.93;;;4.43;;
11082;SDS011;5595;50.186;8.468;2023-04-07T00:57:56;10.03;;;4.73;;
11082;SDS011;5595;50.186;8.468;2023-04-07T01:00:23;13.23;;;4.30;;
11082;SDS011;5595;50.186;8.468;2023-04-07T01:02:54;9.90;;;4.70;;
11082;SDS011;5595;50.186;8.468;2023-04-07T01:05:25;12.13;;;4.67;;
11082;SDS011;5595;50.186;8.468;2023-04-07T01:08:00;10.80;;;4.93;;
11082;SDS011;5595;50.186;8.468;2023-04-07T01:10:36;9.27;;;4.33;;
11082;SDS011;5595;50.186;8.468;2023-04-07T01:13:11;9.17;;;4.70;;
11082;SDS011;5595;50.186;8.468;2023-04-07T01:15:48;13.93;;;5.20;;
11082;SDS011;5595;50.186;8.468;2023-04-07T01:18:21;11.27;;;4.80;;
11082;SDS011;5595;50.186;8.468;2023-04-07T01:20:54;13.17;;;5.37;;
11082;SDS011;5595;50.186;8.468;2023-04-07T01:23:28;11.83;;;5.23;;
11082;SDS011;5595;50.186;8.468;2023-04-07T01:26:16;14.67;;;5.63;;
11082;SDS011;5595;50.186;8.468;2023-04-07T01:28:54;12.77;;;5.30;;
11082;SDS011;5595;50.186;8.468;2023-04-07T01:31:30;10.63;;;5.40;;
11082;SDS011;5595;50.186;8.468;2023-04-07T01:33:59;12.30;;;4.83;;
11082;SDS011;5595;50.186;8.468;2023-04-07T01:36:27;14.47;;;5.50;;
11082;SDS011;5595;50.186;8.468;2023-04-07T01:38:56;12.90;;;5.20;;
11082;SDS011;5595;50.186;8.468;2023-04-07T01:41:25;10.27;;;5.17;;
11082;SDS011;5595;50.186;8.468;2023-04-07T01:43:53;12.27;;;5.53;;
11082;SDS011;5595;50.186;8.468;2023-04-07T01:46:21;11.17;;;5.43;;
11082;SDS011;5595;50.186;8.468;2023-04-07T01:48:49;11.73;;;4.97;;
11082;SDS011;5595;50.186;8.468;2023-04-07T01:51:18;12.20;;;4.90;;
11082;SDS011;5595;50.186;8.468;2023-04-07T01:53:46;17.17;;;6.10;;
11082;SDS011;5595;50.186;8.468;2023-04-07T01:56:14;11.10;;;4.83;;
11082;SDS011;5595;50.186;8.468;2023-04-07T01:58:41;13.00;;;5.53;;
11082;SDS011;5595;50.186;8.468;2023-04-07T02:01:08;12.07;;;5.60;;
11082;SDS011;5595;50.186;8.468;2023-04-07T02:03:38;10.87;;;4.77;;
11082;SDS011;5595;50.186;8.468;2023-04-07T02:06:11;10.50;;;4.63;;
11082;SDS011;5595;50.186;8.468;2023-04-07T02:08:41;10.00;;;4.63;;
11082;SDS011;5595;50.186;8.468;2023-04-07T02:11:12;11.77;;;4.70;;
11082;SDS011;5595;50.186;8.468;2023-04-07T02:13:42;10.93;;;5.30;;
11082;SDS011;5595;50.186;8.468;2023-04-07T02:16:11;12.87;;;4.53;;
11082;SDS011;5595;50.186;8.468;2023-04-07T02:18:39;11.13;;;5.07;;
11082;SDS011;5595;50.186;8.468;2023-04-07T02:21:07;9.90;;;4.80;;
11082;SDS011;5595;50.186;8.468;2023-04-07T02:23:36;14.50;;;5.03;;
11082;SDS011;5595;50.186;8.468;2023-04-07T02:26:03;11.70;;;5.60;;
11082;SDS011;5595;50.186;8.468;2023-04-07T02:28:30;9.53;;;4.57;;
11082;SDS011;5595;50.186;8.468;2023-04-07T02:30:57;8.57;;;3.97;;
11082;SDS011;5595;50.186;8.468;2023-04-07T02:33:24;11.17;;;3.80;;
11082;SDS011;5595;50.186;8.468;2023-04-07T02:35:51;7.33;;;3.60;;
11082;SDS011;5595;50.186;8.468;2023-04-07T02:38:18;9.83;;;4.00;;
11082;SDS011;5595;50.186;8.468;2023-04-07T02:40:46;6.67;;;3.23;;
11082;SDS011;5595;50.186;8.468;2023-04-07T02:43:12;6.20;;;3.50;;
11082;SDS011;5595;50.186;8.468;2023-04-07T02:45:40;6.33;;;3.20;;
11082;SDS011;5595;50.186;8.468;2023-04-07T02:48:10;7.53;;;3.27;;
11082;SDS011;5595;50.186;8.468;2023-04-07T02:50:37;9.13;;;4.10;;
11082;SDS011;5595;50.186;8.468;2023-04-07T02:53:05;9.13;;;4.70;;
11082;SDS011;5595;50.186;8.468;2023-04-07T02:55:32;9.43;;;4.47;;
11082;SDS011;5595;50.186;8.468;2023-04-07T02:58:00;10.90;;;4.47;;
11082;SDS011;5595;50.186;8.468;2023-04-07T03:00:27;10.03;;;4.23;;
11082;SDS011;5595;50.186;8.468;2023-04-07T03:02:54;12.03;;;4.47;;
11082;SDS011;5595;50.186;8.468;2023-04-07T03:05:21;7.07;;;3.67;;
11082;SDS011;5595;50.186;8.468;2023-04-07T03:07:48;10.20;;;4.40;;
11082;SDS011;5595;50.186;8.468;2023-04-07T03:10:15;8.83;;;4.10;;
11082;SDS011;5595;50.186;8.468;2023-04-07T03:12:42;9.67;;;4.60;;
11082;SDS011;5595;50.186;8.468;2023-04-07T03:15:10;7.40;;;3.80;;
11082;SDS011;5595;50.186;8.468;2023-04-07T03:17:37;12.10;;;4.43;;
11082;SDS011;5595;50.186;8.468;2023-04-07T03:20:04;8.80;;;4.17;;
11082;SDS011;5595;50.186;8.468;2023-04-07T03:22:32;7.77;;;3.43;;
11082;SDS011;5595;50.186;8.468;2023-04-07T03:24:59;8.97;;;4.27;;
11082;SDS011;5595;50.186;8.468;2023-04-07T03:27:26;5.33;;;2.77;;
11082;SDS011;5595;50.186;8.468;2023-04-07T03:29:53;7.00;;;3.47;;
11082;SDS011;5595;50.186;8.468;2023-04-07T03:32:21;6.43;;;2.90;;
11082;SDS011;5595;50.186;8.468;2023-04-07T03:34:48;6.70;;;3.00;;
11082;SDS011;5595;50.186;8.468;2023-04-07T03:37:15;8.97;;;3.37;;
11082;SDS011;5595;50.186;8.468;2023-04-07T03:39:42;6.43;;;2.97;;
11082;SDS011;5595;50.186;8.468;2023-04-07T03:42:08;6.47;;;3.17;;
11082;SDS011;5595;50.186;8.468;2023-04-07T03:44:35;5.80;;;3.43;;
11082;SDS011;5595;50.186;8.468;2023-04-07T03:47:02;7.67;;;3.57;;
11082;SDS011;5595;50.186;8.468;2023-04-07T03:49:30;7.97;;;3.50;;
11082;SDS011;5595;50.186;8.468;2023-04-07T03:51:57;8.63;;;3.70;;
11082;SDS011;5595;50.186;8.468;2023-04-07T03:54:24;10.33;;;4.20;;
11082;SDS011;5595;50.186;8.468;2023-04-07T03:56:51;9.13;;;4.23;;
11082;SDS011;5595;50.186;8.468;2023-04-07T03:59:18;7.20;;;3.83;;
11082;SDS011;5595;50.186;8.468;2023-04-07T04:01:45;6.87;;;3.93;;
11082;SDS011;5595;50.186;8.468;2023-04-07T04:04:12;6.73;;;3.40;;
11082;SDS011;5595;50.186;8.468;2023-04-07T04:06:40;6.73;;;3.97;;
11082;SDS011;5595;50.186;8.468;2023-04-07T04:09:07;12.00;;;4.40;;
11082;SDS011;5595;50.186;8.468;2023-04-07T04:11:34;9.70;;;4.13;;
11082;SDS011;5595;50.186;8.468;2023-04-07T04:14:01;7.17;;;3.47;;
11082;SDS011;5595;50.186;8.468;2023-04-07T04:16:28;9.13;;;3.93;;
11082;SDS011;5595;50.186;8.468;2023-04-07T04:18:55;6.67;;;3.13;;
11082;SDS011;5595;50.186;8.468;2023-04-07T04:21:22;9.30;;;4.47;;
11082;SDS011;5595;50.186;8.468;2023-04-07T04:23:52;7.63;;;3.37;;
11082;SDS011;5595;50.186;8.468;2023-04-07T04:26:19;8.37;;;3.67;;
11082;SDS011;5595;50.186;8.468;2023-04-07T04:28:49;8.13;;;3.33;;
11082;SDS011;5595;50.186;8.468;2023-04-07T04:31:16;6.37;;;3.47;;
11082;SDS011;5595;50.186;8.468;2023-04-07T04:33:43;5.17;;;2.80;;
11082;SDS011;5595;50.186;8.468;2023-04-07T04:36:10;8.27;;;3.50;;
11082;SDS011;5595;50.186;8.468;2023-04-07T04:38:37;8.77;;;3.50;;
11082;SDS011;5595;50.186;8.468;2023-04-07T04:41:05;7.80;;;3.77;;
11082;SDS011;5595;50.186;8.468;2023-04-07T04:43:33;8.87;;;3.90;;
11082;SDS011;5595;50.186;8.468;2023-04-07T04:46:00;7.57;;;3.73;;
11082;SDS011;5595;50.186;8.468;2023-04-07T04:48:27;7.20;;;3.53;;
11082;SDS011;5595;50.186;8.468;2023-04-07T04:50:54;9.10;;;4.30;;
11082;SDS011;5595;50.186;8.468;2023-04-07T04:53:21;10.40;;;4.23;;
11082;SDS011;5595;50.186;8.468;2023-04-07T04:55:48;9.63;;;4.13;;
11082;SDS011;5595;50.186;8.468;2023-04-07T04:58:17;9.90;;;4.63;;
11082;SDS011;5595;50.186;8.468;2023-04-07T05:00:46;10.40;;;4.67;;
11082;SDS011;5595;50.186;8.468;2023-04-07T05:03:13;12.97;;;4.93;;
11082;SDS011;5595;50.186;8.468;2023-04-07T05:05:40;10.50;;;4.47;;
11082;SDS011;5595;50.186;8.468;2023-04-07T05:08:07;12.90;;;5.33;;
11082;SDS011;5595;50.186;8.468;2023-04-07T05:10:37;10.07;;;4.20;;
11082;SDS011;5595;50.186;8.468;2023-04-07T05:13:05;10.40;;;4.53;;
11082;SDS011;5595;50.186;8.468;2023-04-07T05:15:33;10.47;;;4.90;;
11082;SDS011;5595;50.186;8.468;2023-04-07T05:18:00;7.17;;;3.83;;
11082;SDS011;5595;50.186;8.468;2023-04-07T05:20:27;11.37;;;4.97;;
11082;SDS011;5595;50.186;8.468;2023-04-07T05:22:54;10.13;;;4.43;;
11082;SDS011;5595;50.186;8.468;2023-04-07T05:25:21;9.20;;;4.13;;
11082;SDS011;5595;50.186;8.468;2023-04-07T05:27:48;9.87;;;4.63;;
11082;SDS011;5595;50.186;8.468;2023-04-07T05:30:15;8.43;;;3.73;;
11082;SDS011;5595;50.186;8.468;2023-04-07T05:32:44;9.20;;;3.77;;
11082;SDS011;5595;50.186;8.468;2023-04-07T05:35:11;11.13;;;3.63;;
11082;SDS011;5595;50.186;8.468;2023-04-07T05:37:38;10.13;;;4.40;;
11082;SDS011;5595;50.186;8.468;2023-04-07T05:40:06;7.23;;;3.40;;
11082;SDS011;5595;50.186;8.468;2023-04-07T05:42:33;6.23;;;3.33;;
11082;SDS011;5595;50.186;8.468;2023-04-07T05:45:00;8.70;;;4.17;;
11082;SDS011;5595;50.186;8.468;2023-04-07T05:47:27;10.57;;;4.57;;
11082;SDS011;5595;50.186;8.468;2023-04-07T05:49:58;8.77;;;3.80;;
11082;SDS011;5595;50.186;8.468;2023-04-07T05:52:25;11.87;;;4.77;;
11082;SDS011;5595;50.186;8.468;2023-04-07T05:54:52;9.67;;;3.80;;
11082;SDS011;5595;50.186;8.468;2023-04-07T05:57:19;6.47;;;3.73;;
11082;SDS011;5595;50.186;8.468;2023-04-07T05:59:46;8.90;;;4.30;;
11082;SDS011;5595;50.186;8.468;2023-04-07T06:02:13;12.40;;;4.50;;
11082;SDS011;5595;50.186;8.468;2023-04-07T06:04:40;9.77;;;4.50;;
11082;SDS011;5595;50.186;8.468;2023-04-07T06:07:08;9.37;;;4.60;;
11082;SDS011;5595;50.186;8.468;2023-04-07T06:09:35;8.97;;;4.07;;
11082;SDS011;5595;50.186;8.468;2023-04-07T06:12:02;9.37;;;3.97;;
11082;SDS011;5595;50.186;8.468;2023-04-07T06:14:30;7.17;;;3.67;;
11082;SDS011;5595;50.186;8.468;2023-04-07T06:16:57;10.40;;;4.73;;
11082;SDS011;5595;50.186;8.468;2023-04-07T06:19:25;11.43;;;4.23;;
11082;SDS011;5595;50.186;8.468;2023-04-07T06:21:52;8.67;;;3.57;;
11082;SDS011;5595;50.186;8.468;2023-04-07T06:24:20;7.23;;;3.17;;
11082;SDS011;5595;50.186;8.468;2023-04-07T06:26:49;9.17;;;4.03;;
11082;SDS011;5595;50.186;8.468;2023-04-07T06:29:17;7.20;;;3.37;;
11082;SDS011;5595;50.186;8.468;2023-04-07T06:31:44;8.03;;;3.50;;
11082;SDS011;5595;50.186;8.468;2023-04-07T06:34:11;6.80;;;3.13;;
11082;SDS011;5595;50.186;8.468;2023-04-07T06:36:37;9.33;;;4.00;;
11082;SDS011;5595;50.186;8.468;2023-04-07T06:39:04;7.13;;;3.30;;
11082;SDS011;5595;50.186;8.468;2023-04-07T06:41:33;7.00;;;3.70;;
11082;SDS011;5595;50.186;8.468;2023-04-07T06:44:00;4.13;;;2.20;;
11082;SDS011;5595;50.186;8.468;2023-04-07T06:46:27;7.60;;;3.33;;
11082;SDS011;5595;50.186;8.468;2023-04-07T06:48:54;3.87;;;2.30;;
11082;SDS011;5595;50.186;8.468;2023-04-07T06:51:21;6.03;;;2.90;;
11082;SDS011;5595;50.186;8.468;2023-04-07T06:53:48;9.53;;;3.13;;
11082;SDS011;5595;50.186;8.468;2023-04-07T06:56:15;6.03;;;2.80;;
11082;SDS011;5595;50.186;8.468;2023-04-07T06:58:43;6.50;;;2.37;;
11082;SDS011;5595;50.186;8.468;2023-04-07T07:01:10;6.17;;;3.20;;
11082;SDS011;5595;50.186;8.468;2023-04-07T07:03:37;5.87;;;3.10;;
11082;SDS011;5595;50.186;8.468;2023-04-07T07:06:04;6.17;;;3.30;;
11082;SDS011;5595;50.186;8.468;2023-04-07T07:08:31;6.60;;;3.17;;
11082;SDS011;5595;50.186;8.468;2023-04-07T07:10:57;5.20;;;2.70;;
11082;SDS011;5595;50.186;8.468;2023-04-07T07:13:25;8.17;;;3.50;;
11082;SDS011;5595;50.186;8.468;2023-04-07T07:15:53;5.70;;;2.80;;
11082;SDS011;5595;50.186;8.468;2023-04-07T07:18:20;6.30;;;2.53;;
11082;SDS011;5595;50.186;8.468;2023-04-07T07:20:47;5.57;;;2.13;;
11082;SDS011;5595;50.186;8.468;2023-04-07T07:23:14;3.57;;;1.60;;
11082;SDS011;5595;50.186;8.468;2023-04-07T07:25:41;4.77;;;2.40;;
11082;SDS011;5595;50.186;8.468;2023-04-07T07:28:08;4.70;;;2.43;;
11082;SDS011;5595;50.186;8.468;2023-04-07T07:30:37;4.80;;;2.20;;
11082;SDS011;5595;50.186;8.468;2023-04-07T07:33:06;5.27;;;2.10;;
11082;SDS011;5595;50.186;8.468;2023-04-07T07:35:33;3.03;;;1.60;;
11082;SDS011;5595;50.186;8.468;2023-04-07T07:38:01;4.50;;;2.27;;
11082;SDS011;5595;50.186;8.468;2023-04-07T07:40:28;3.33;;;1.97;;
11082;SDS011;5595;50.186;8.468;2023-04-07T07:42:55;3.97;;;2.17;;
11082;SDS011;5595;50.186;8.468;2023-04-07T07:45:22;4.17;;;2.13;;
11082;SDS011;5595;50.186;8.468;2023-04-07T07:47:49;4.93;;;2.20;;
11082;SDS011;5595;50.186;8.468;2023-04-07T07:50:17;3.63;;;2.00;;
11082;SDS011;5595;50.186;8.468;2023-04-07T07:52:44;3.83;;;2.00;;
11082;SDS011;5595;50.186;8.468;2023-04-07T07:55:11;2.80;;;1.53;;
11082;SDS011;5595;50.186;8.468;2023-04-07T07:57:38;3.07;;;1.83;;
11082;SDS011;5595;50.186;8.468;2023-04-07T08:00:06;4.23;;;2.30;;
11082;SDS011;5595;50.186;8.468;2023-04-07T08:02:35;5.17;;;2.00;;
11082;SDS011;5595;50.186;8.468;2023-04-07T08:05:08;3.87;;;1.80;;
11082;SDS011;5595;50.186;8.468;2023-04-07T08:07:39;3.03;;;1.80;;
11082;SDS011;5595;50.186;8.468;2023-04-07T08:10:07;3.00;;;1.60;;
11082;SDS011;5595;50.186;8.468;2023-04-07T08:12:34;2.90;;;1.67;;
11082;SDS011;5595;50.186;8.468;2023-04-07T08:15:01;3.03;;;1.77;;
11082;SDS011;5595;50.186;8.468;2023-04-07T08:17:28;3.83;;;1.43;;
11082;SDS011;5595;50.186;8.468;2023-04-07T08:19:57;2.87;;;1.60;;
11082;SDS011;5595;50.186;8.468;2023-04-07T08:22:25;4.13;;;1.70;;
11082;SDS011;5595;50.186;8.468;2023-04-07T08:24:54;3.27;;;1.60;;
11082;SDS011;5595;50.186;8.468;2023-04-07T08:27:21;3.10;;;1.80;;
11082;SDS011;5595;50.186;8.468;2023-04-07T08:29:50;2.97;;;1.93;;
11082;SDS011;5595;50.186;8.468;2023-04-07T08:32:24;5.20;;;2.10;;
11082;SDS011;5595;50.186;8.468;2023-04-07T08:34:54;5.03;;;2.23;;
11082;SDS011;5595;50.186;8.468;2023-04-07T08:37:21;4.13;;;1.83;;
11082;SDS011;5595;50.186;8.468;2023-04-07T08:39:48;4.07;;;1.70;;
11082;SDS011;5595;50.186;8.468;2023-04-07T08:42:17;2.60;;;1.33;;
11082;SDS011;5595;50.186;8.468;2023-04-07T08:44:46;4.43;;;1.90;;
11082;SDS011;5595;50.186;8.468;2023-04-07T08:47:15;3.30;;;1.50;;
11082;SDS011;5595;50.186;8.468;2023-04-07T08:49:44;3.43;;;1.77;;
11082;SDS011;5595;50.186;8.468;2023-04-07T08:52:15;3.33;;;1.87;;
11082;SDS011;5595;50.186;8.468;2023-04-07T08:54:47;2.10;;;1.47;;
11082;SDS011;5595;50.186;8.468;2023-04-07T08:57:14;2.27;;;1.50;;
11082;SDS011;5595;50.186;8.468;2023-04-07T08:59:43;3.00;;;1.50;;
11082;SDS011;5595;50.186;8.468;2023-04-07T09:02:13;3.20;;;1.57;;
11082;SDS011;5595;50.186;8.468;2023-04-07T09:04:41;2.80;;;1.77;;
11082;SDS011;5595;50.186;8.468;2023-04-07T09:07:09;3.45;;;1.70;;
11082;SDS011;5595;50.186;8.468;2023-04-07T09:09:36;2.97;;;1.73;;
11082;SDS011;5595;50.186;8.468;2023-04-07T09:12:04;4.13;;;2.27;;
11082;SDS011;5595;50.186;8.468;2023-04-07T09:14:33;5.73;;;2.80;;
11082;SDS011;5595;50.186;8.468;2023-04-07T09:17:00;2.95;;;1.60;;
11082;SDS011;5595;50.186;8.468;2023-04-07T09:19:27;3.55;;;1.90;;
11082;SDS011;5595;50.186;8.468;2023-04-07T09:21:54;3.05;;;1.58;;
11082;SDS011;5595;50.186;8.468;2023-04-07T09:24:24;3.72;;;1.85;;
11082;SDS011;5595;50.186;8.468;2023-04-07T09:27:09;3.50;;;2.15;;
11082;SDS011;5595;50.186;8.468;2023-04-07T09:29:38;3.10;;;1.60;;
11082;SDS011;5595;50.186;8.468;2023-04-07T09:32:07;3.70;;;1.95;;
11082;SDS011;5595;50.186;8.468;2023-04-07T09:34:35;4.35;;;2.00;;
11082;SDS011;5595;50.186;8.468;2023-04-07T09:37:03;2.85;;;1.63;;
11082;SDS011;5595;50.186;8.468;2023-04-07T09:39:32;3.58;;;1.98;;
11082;SDS011;5595;50.186;8.468;2023-04-07T09:42:03;3.15;;;1.80;;
11082;SDS011;5595;50.186;8.468;2023-04-07T09:44:38;3.17;;;1.70;;
11082;SDS011;5595;50.186;8.468;2023-04-07T09:47:06;4.17;;;2.13;;
11082;SDS011;5595;50.186;8.468;2023-04-07T09:49:33;1.57;;;1.23;;
11082;SDS011;5595;50.186;8.468;2023-04-07T09:52:15;3.38;;;1.50;;
11082;SDS011;5595;50.186;8.468;2023-04-07T09:54:44;2.83;;;1.53;;
11082;SDS011;5595;50.186;8.468;2023-04-07T09:57:12;2.33;;;1.40;;
11082;SDS011;5595;50.186;8.468;2023-04-07T09:59:43;2.67;;;1.67;;
11082;SDS011;5595;50.186;8.468;2023-04-07T10:02:11;2.73;;;1.53;;
11082;SDS011;5595;50.186;8.468;2023-04-07T10:04:38;2.53;;;1.70;;
11082;SDS011;5595;50.186;8.468;2023-04-07T10:07:06;4.07;;;2.33;;
11082;SDS011;5595;50.186;8.468;2023-04-07T10:09:33;3.77;;;2.17;;
11082;SDS011;5595;50.186;8.468;2023-04-07T10:12:00;3.47;;;1.87;;
11082;SDS011;5595;50.186;8.468;2023-04-07T10:14:29;5.03;;;3.00;;
11082;SDS011;5595;50.186;8.468;2023-04-07T10:16:58;2.53;;;1.50;;
11082;SDS011;5595;50.186;8.468;2023-04-07T10:19:26;3.83;;;2.40;;
11082;SDS011;5595;50.186;8.468;2023-04-07T10:21:57;2.83;;;1.63;;
11082;SDS011;5595;50.186;8.468;2023-04-07T10:24:33;4.10;;;2.73;;
11082;SDS011;5595;50.186;8.468;2023-04-07T10:27:13;3.40;;;1.90;;
11082;SDS011;5595;50.186;8.468;2023-04-07T10:29:43;3.10;;;2.07;;
11082;SDS011;5595;50.186;8.468;2023-04-07T10:32:15;2.57;;;1.60;;
11082;SDS011;5595;50.186;8.468;2023-04-07T10:37:25;2.87;;;1.50;;
11082;SDS011;5595;50.186;8.468;2023-04-07T10:42:52;3.77;;;2.17;;
11082;SDS011;5595;50.186;8.468;2023-04-07T10:48:19;3.73;;;1.67;;
11082;SDS011;5595;50.186;8.468;2023-04-07T10:57:06;3.50;;;1.87;;
11082;SDS011;5595;50.186;8.468;2023-04-07T10:59:35;2.90;;;1.73;;
11082;SDS011;5595;50.186;8.468;2023-04-07T11:05:01;2.80;;;2.00;;
11082;SDS011;5595;50.186;8.468;2023-04-07T11:07:42;7.40;;;4.03;;
11082;SDS011;5595;50.186;8.468;2023-04-07T11:10:14;10.00;;;5.43;;
11082;SDS011;5595;50.186;8.468;2023-04-07T11:12:43;4.27;;;2.60;;
11082;SDS011;5595;50.186;8.468;2023-04-07T11:15:24;4.40;;;1.70;;
11082;SDS011;5595;50.186;8.468;2023-04-07T11:20:49;2.57;;;1.47;;
11082;SDS011;5595;50.186;8.468;2023-04-07T11:23:17;2.67;;;1.53;;
11082;SDS011;5595;50.186;8.468;2023-04-07T11:25:46;3.42;;;1.65;;
11082;SDS011;5595;50.186;8.468;2023-04-07T11:28:16;2.85;;;1.38;;
11082;SDS011;5595;50.186;8.468;2023-04-07T11:30:44;3.75;;;1.23;;
11082;SDS011;5595;50.186;8.468;2023-04-07T11:33:19;1.87;;;1.40;;
11082;SDS011;5595;50.186;8.468;2023-04-07T11:35:51;1.97;;;1.33;;
11082;SDS011;5595;50.186;8.468;2023-04-07T11:38:21;1.92;;;1.30;;
11082;SDS011;5595;50.186;8.468;2023-04-07T11:40:49;2.23;;;1.40;;
11082;SDS011;5595;50.186;8.468;2023-04-07T11:43:25;1.27;;;0.63;;
11082;SDS011;5595;50.186;8.468;2023-04-07T11:46:02;0.90;;;0.63;;
11082;SDS011;5595;50.186;8.468;2023-04-07T11:48:34;2.80;;;1.10;;
11082;SDS011;5595;50.186;8.468;2023-04-07T11:51:03;0.90;;;0.73;;
11082;SDS011;5595;50.186;8.468;2023-04-07T11:53:31;2.75;;;1.35;;
11082;SDS011;5595;50.186;8.468;2023-04-07T11:56:03;1.15;;;0.70;;
11082;SDS011;5595;50.186;8.468;2023-04-07T11:58:33;1.15;;;0.98;;
11082;SDS011;5595;50.186;8.468;2023-04-07T12:01:01;0.73;;;0.70;;
11082;SDS011;5595;50.186;8.468;2023-04-07T12:03:31;0.77;;;0.60;;
11082;SDS011;5595;50.186;8.468;2023-04-07T12:05:58;0.63;;;0.63;;
11082;SDS011;5595;50.186;8.468;2023-04-07T12:08:42;0.40;;;0.40;;
11082;SDS011;5595;50.186;8.468;2023-04-07T12:11:09;0.88;;;0.68;;
11082;SDS011;5595;50.186;8.468;2023-04-07T12:13:36;0.40;;;0.40;;
11082;SDS011;5595;50.186;8.468;2023-04-07T12:16:03;0.60;;;0.47;;
11082;SDS011;5595;50.186;8.468;2023-04-07T12:18:31;1.02;;;0.65;;
11082;SDS011;5595;50.186;8.468;2023-04-07T12:20:57;0.40;;;0.40;;
11082;SDS011;5595;50.186;8.468;2023-04-07T12:23:25;0.43;;;0.40;;
11082;SDS011;5595;50.186;8.468;2023-04-07T12:25:53;0.47;;;0.30;;
11082;SDS011;5595;50.186;8.468;2023-04-07T12:28:20;0.47;;;0.30;;
11082;SDS011;5595;50.186;8.468;2023-04-07T12:30:47;0.73;;;0.50;;
11082;SDS011;5595;50.186;8.468;2023-04-07T12:33:14;0.63;;;0.43;;
11082;SDS011;5595;50.186;8.468;2023-04-07T12:35:41;0.30;;;0.30;;
11082;SDS011;5595;50.186;8.468;2023-04-07T12:38:08;0.40;;;0.40;;
11082;SDS011;5595;50.186;8.468;2023-04-07T12:40:35;0.63;;;0.60;;
11082;SDS011;5595;50.186;8.468;2023-04-07T12:43:03;0.88;;;0.50;;
11082;SDS011;5595;50.186;8.468;2023-04-07T12:45:31;1.08;;;0.70;;
11082;SDS011;5595;50.186;8.468;2023-04-07T12:47:58;1.40;;;0.70;;
11082;SDS011;5595;50.186;8.468;2023-04-07T12:50:25;1.05;;;0.77;;
11082;SDS011;5595;50.186;8.468;2023-04-07T12:52:53;0.98;;;0.73;;
11082;SDS011;5595;50.186;8.468;2023-04-07T12:55:20;0.22;;;0.22;;
11082;SDS011;5595;50.186;8.468;2023-04-07T12:57:47;0.32;;;0.32;;
11082;SDS011;5595;50.186;8.468;2023-04-07T13:00:17;0.63;;;0.60;;
11082;SDS011;5595;50.186;8.468;2023-04-07T13:02:44;1.20;;;0.60;;
11082;SDS011;5595;50.186;8.468;2023-04-07T13:05:12;1.10;;;0.50;;
11082;SDS011;5595;50.186;8.468;2023-04-07T13:07:39;0.60;;;0.55;;
11082;SDS011;5595;50.186;8.468;2023-04-07T13:10:06;1.25;;;0.57;;
11082;SDS011;5595;50.186;8.468;2023-04-07T13:12:34;0.52;;;0.45;;
11082;SDS011;5595;50.186;8.468;2023-04-07T13:15:01;0.30;;;0.30;;
11082;SDS011;5595;50.186;8.468;2023-04-07T13:17:30;0.60;;;0.60;;
11082;SDS011;5595;50.186;8.468;2023-04-07T13:19:57;0.20;;;0.20;;
11082;SDS011;5595;50.186;8.468;2023-04-07T13:22:27;0.25;;;0.20;;
11082;SDS011;5595;50.186;8.468;2023-04-07T13:24:54;0.20;;;0.20;;
11082;SDS011;5595;50.186;8.468;2023-04-07T13:27:21;0.20;;;0.20;;
11082;SDS011;5595;50.186;8.468;2023-04-07T13:29:48;0.20;;;0.20;;
11082;SDS011;5595;50.186;8.468;2023-04-07T13:32:15;0.10;;;0.10;;
11082;SDS011;5595;50.186;8.468;2023-04-07T13:34:44;0.20;;;0.20;;
11082;SDS011;5595;50.186;8.468;2023-04-07T13:37:11;0.20;;;0.20;;
11082;SDS011;5595;50.186;8.468;2023-04-07T13:39:37;0.35;;;0.35;;
11082;SDS011;5595;50.186;8.468;2023-04-07T13:42:04;0.28;;;0.28;;
11082;SDS011;5595;50.186;8.468;2023-04-07T13:44:33;0.30;;;0.30;;
11082;SDS011;5595;50.186;8.468;2023-04-07T13:47:01;0.30;;;0.30;;
11082;SDS011;5595;50.186;8.468;2023-04-07T13:49:28;0.20;;;0.20;;
11082;SDS011;5595;50.186;8.468;2023-04-07T13:51:56;0.22;;;0.22;;
11082;SDS011;5595;50.186;8.468;2023-04-07T13:54:23;0.25;;;0.25;;
11082;SDS011;5595;50.186;8.468;2023-04-07T13:56:52;0.20;;;0.20;;
11082;SDS011;5595;50.186;8.468;2023-04-07T13:59:19;0.38;;;0.30;;
11082;SDS011;5595;50.186;8.468;2023-04-07T14:01:46;0.30;;;0.30;;
11082;SDS011;5595;50.186;8.468;2023-04-07T14:04:13;0.30;;;0.30;;
11082;SDS011;5595;50.186;8.468;2023-04-07T14:06:40;0.35;;;0.35;;
11082;SDS011;5595;50.186;8.468;2023-04-07T14:09:08;0.40;;;0.38;;
11082;SDS011;5595;50.186;8.468;2023-04-07T14:11:35;0.57;;;0.22;;
11082;SDS011;5595;50.186;8.468;2023-04-07T14:14:02;0.43;;;0.30;;
11082;SDS011;5595;50.186;8.468;2023-04-07T14:16:28;0.35;;;0.30;;
11082;SDS011;5595;50.186;8.468;2023-04-07T14:18:55;0.75;;;0.40;;
11082;SDS011;5595;50.186;8.468;2023-04-07T14:21:22;0.22;;;0.20;;
11082;SDS011;5595;50.186;8.468;2023-04-07T14:23:51;0.30;;;0.30;;
11082;SDS011;5595;50.186;8.468;2023-04-07T14:26:19;0.70;;;0.40;;
11082;SDS011;5595;50.186;8.468;2023-04-07T14:28:46;0.38;;;0.30;;
11082;SDS011;5595;50.186;8.468;2023-04-07T14:31:13;0.50;;;0.43;;
11082;SDS011;5595;50.186;8.468;2023-04-07T14:33:40;0.55;;;0.40;;
11082;SDS011;5595;50.186;8.468;2023-04-07T14:36:07;0.47;;;0.20;;
11082;SDS011;5595;50.186;8.468;2023-04-07T14:38:34;0.55;;;0.40;;
11082;SDS011;5595;50.186;8.468;2023-04-07T14:41:01;0.30;;;0.30;;
11082;SDS011;5595;50.186;8.468;2023-04-07T14:43:32;1.75;;;0.30;;
11082;SDS011;5595;50.186;8.468;2023-04-07T14:46:08;0.50;;;0.38;;
11082;SDS011;5595;50.186;8.468;2023-04-07T14:48:36;0.28;;;0.28;;
11082;SDS011;5595;50.186;8.468;2023-04-07T14:51:08;0.73;;;0.28;;
11082;SDS011;5595;50.186;8.468;2023-04-07T14:53:36;0.65;;;0.40;;
11082;SDS011;5595;50.186;8.468;2023-04-07T14:56:03;0.70;;;0.32;;
11082;SDS011;5595;50.186;8.468;2023-04-07T14:58:31;0.93;;;0.50;;
11082;SDS011;5595;50.186;8.468;2023-04-07T15:01:01;0.50;;;0.50;;
11082;SDS011;5595;50.186;8.468;2023-04-07T15:03:28;0.35;;;0.30;;
11082;SDS011;5595;50.186;8.468;2023-04-07T15:05:55;0.82;;;0.20;;
11082;SDS011;5595;50.186;8.468;2023-04-07T15:08:23;0.30;;;0.30;;
11082;SDS011;5595;50.186;8.468;2023-04-07T15:10:50;0.40;;;0.40;;
11082;SDS011;5595;50.186;8.468;2023-04-07T15:13:20;1.00;;;0.52;;
11082;SDS011;5595;50.186;8.468;2023-04-07T15:15:48;0.85;;;0.50;;
11082;SDS011;5595;50.186;8.468;2023-04-07T15:18:15;0.50;;;0.50;;
11082;SDS011;5595;50.186;8.468;2023-04-07T15:20:44;0.70;;;0.55;;
11082;SDS011;5595;50.186;8.468;2023-04-07T15:23:11;0.77;;;0.60;;
11082;SDS011;5595;50.186;8.468;2023-04-07T15:25:38;1.00;;;0.40;;
11082;SDS011;5595;50.186;8.468;2023-04-07T15:28:06;0.30;;;0.30;;